APL Norway — A8NC4 — position and weather

sailwx.info

Track history (hours):
 
Tides and Currents Weather Stations Pressure Air Temp Water Temp Dewpoint Dewpoint Depression Visibility Wind Speed Wind Dir Waves Ship Positions

APL Norway

Last reported at 2017-Jan-07 09:18 UTC. Time now 2017-Jan-20 22:12 UTC.
Position N 01°59' E 102°12'.
Warning: this ship's position is 13 days out of date.

Length 295 m; draft 13.6 m.

Type: Ship (hazmat cat A). MMSI: 636013456.

Date/timePositionNaut miles runAvg speedWind from/ knotsBaromVisibWave heightAir tempDewpointWater temp
2017-Jan-07 09:18N 01°59' E 102°12'1316.7
2017-Jan-07 08:32N 01°53' E 102°24'1916.5
2017-Jan-07 07:25N 01°45' E 102°40'6816.3
2017-Jan-07 03:14N 01°13' E 103°41'6 9.4
2017-Jan-07 02:33N 01°15' E 103°47'1 0.7
2017-Jan-07 01:31N 01°16' E 103°47'0 0.0
2017-Jan-07 00:07N 01°16' E 103°47'0 0.0
2017-Jan-06 23:31N 01°16' E 103°47'0 0.0
2017-Jan-06 22:25N 01°16' E 103°47'0 0.0
2017-Jan-06 21:31N 01°16' E 103°47'0 0.0
2017-Jan-06 20:31N 01°16' E 103°47'0 0.0
2017-Jan-06 19:31N 01°16' E 103°47'0 0.0
2017-Jan-06 18:31N 01°16' E 103°47'0 0.0
2017-Jan-06 17:28N 01°16' E 103°47'0 0.0
2017-Jan-06 16:25N 01°16' E 103°47'0 0.0
2017-Jan-06 15:31N 01°16' E 103°47'0 0.0
2017-Jan-06 14:31N 01°16' E 103°47'0 0.0
2017-Jan-06 13:31N 01°16' E 103°47'0 0.0
2017-Jan-06 12:31N 01°16' E 103°47'0 0.0
2017-Jan-06 11:31N 01°16' E 103°47'0 0.0
2017-Jan-06 10:31N 01°16' E 103°47'0 0.0
2017-Jan-06 09:33N 01°16' E 103°47'1 1.4
2017-Jan-06 08:33N 01°15' E 103°46'6 4.0
2017-Jan-06 07:10N 01°12' E 103°41'0 0.1
2017-Jan-06 06:28N 01°12' E 103°41'0 0.0
2017-Jan-06 05:16N 01°12' E 103°41'0 0.0
2017-Jan-06 04:10N 01°12' E 103°41'0 0.1
2017-Jan-06 03:28N 01°13' E 103°41'2 2.6
2017-Jan-06 02:33N 01°12' E 103°39'15 0.6
2017-Jan-05 00:33N 01°13' E 103°54'  
Track history (hours):
 
Tides and Currents Weather Stations Pressure Air Temp Water Temp Dewpoint Dewpoint Depression Visibility Wind Speed Wind Dir Waves Ship Positions

APL Norway

Last reported at 2017-Jan-07 09:18 UTC. Time now 2017-Jan-20 22:12 UTC.
Position N 01°59' E 102°12'.
Warning: this ship's position is 13 days out of date.

Length 295 m; draft 13.6 m.

Type: Ship (hazmat cat A). MMSI: 636013456.

Date/timePositionNaut miles runAvg speedWind from/ knotsBaromVisibWave heightAir tempDewpointWater temp
2017-Jan-07 09:18N 01°59' E 102°12'1316.7
2017-Jan-07 08:32N 01°53' E 102°24'1916.5
2017-Jan-07 07:25N 01°45' E 102°40'6816.3
2017-Jan-07 03:14N 01°13' E 103°41'6 9.4
2017-Jan-07 02:33N 01°15' E 103°47'1 0.7
2017-Jan-07 01:31N 01°16' E 103°47'0 0.0
2017-Jan-07 00:07N 01°16' E 103°47'0 0.0
2017-Jan-06 23:31N 01°16' E 103°47'0 0.0
2017-Jan-06 22:25N 01°16' E 103°47'0 0.0
2017-Jan-06 21:31N 01°16' E 103°47'0 0.0
2017-Jan-06 20:31N 01°16' E 103°47'0 0.0
2017-Jan-06 19:31N 01°16' E 103°47'0 0.0
2017-Jan-06 18:31N 01°16' E 103°47'0 0.0
2017-Jan-06 17:28N 01°16' E 103°47'0 0.0
2017-Jan-06 16:25N 01°16' E 103°47'0 0.0
2017-Jan-06 15:31N 01°16' E 103°47'0 0.0
2017-Jan-06 14:31N 01°16' E 103°47'0 0.0
2017-Jan-06 13:31N 01°16' E 103°47'0 0.0
2017-Jan-06 12:31N 01°16' E 103°47'0 0.0
2017-Jan-06 11:31N 01°16' E 103°47'0 0.0
2017-Jan-06 10:31N 01°16' E 103°47'0 0.0
2017-Jan-06 09:33N 01°16' E 103°47'1 1.4
2017-Jan-06 08:33N 01°15' E 103°46'6 4.0
2017-Jan-06 07:10N 01°12' E 103°41'0 0.1
2017-Jan-06 06:28N 01°12' E 103°41'0 0.0
2017-Jan-06 05:16N 01°12' E 103°41'0 0.0
2017-Jan-06 04:10N 01°12' E 103°41'0 0.1
2017-Jan-06 03:28N 01°13' E 103°41'2 2.6
2017-Jan-06 02:33N 01°12' E 103°39'15 0.6
2017-Jan-05 00:33N 01°13' E 103°54'  

Dump ship's entire track history